Time;durP1;ratioP1;P1;durP2;ratioP2;P2;SDS_P1;SDS_P2;PMS_P1;PMS_P2;Temp;Humidity;BMP_temperature;BMP_pressure;BME280_temperature;BME280_humidity;BME280_pressure;Samples;Min_cycle;Max_cycle;Signal;HPM_P1;HPM_P2
2021/01/29 00:02:09;;;;;;;170.73;37.22;;;9.10;99.90;;;;;;5050900;28;20024;-71
2021/01/29 00:04:34;;;;;;;176.90;38.17;;;9.00;99.90;;;;;;5058302;28;20565;-70
2021/01/29 00:07:00;;;;;;;130.13;36.90;;;9.00;99.90;;;;;;5066659;28;20024;-71
2021/01/29 00:09:28;;;;;;;155.10;36.17;;;9.00;99.90;;;;;;5066321;28;20119;-71
2021/01/29 00:11:53;;;;;;;144.55;36.47;;;9.00;99.90;;;;;;5049747;28;20021;-71
2021/01/29 00:14:19;;;;;;;142.30;37.60;;;9.10;99.90;;;;;;5067401;28;20024;-71
2021/01/29 00:16:44;;;;;;;221.15;43.38;;;9.10;99.90;;;;;;5051204;28;20521;-71
2021/01/29 00:19:10;;;;;;;181.57;41.67;;;9.10;99.90;;;;;;5053789;28;20035;-71
2021/01/29 00:21:35;;;;;;;187.43;42.67;;;9.10;99.90;;;;;;5069574;28;20028;-71
2021/01/29 00:24:01;;;;;;;188.98;43.75;;;9.10;99.90;;;;;;5067897;28;20021;-71
2021/01/29 00:26:27;;;;;;;189.25;44.20;;;9.20;99.90;;;;;;5054569;28;20024;-69
2021/01/29 00:28:52;;;;;;;158.68;40.25;;;9.10;99.90;;;;;;5080018;28;20036;-70
2021/01/29 00:31:18;;;;;;;160.65;42.55;;;9.10;99.90;;;;;;5071584;28;20016;-68
2021/01/29 00:33:43;;;;;;;177.00;45.42;;;9.10;99.90;;;;;;5076497;28;20043;-69
2021/01/29 00:36:09;;;;;;;149.88;40.95;;;9.00;99.90;;;;;;5059289;28;20111;-70
2021/01/29 00:38:34;;;;;;;179.73;44.40;;;9.00;99.90;;;;;;5056093;28;20504;-70
2021/01/29 00:41:00;;;;;;;200.00;44.60;;;9.10;99.90;;;;;;5072223;28;20025;-72
2021/01/29 00:43:26;;;;;;;192.35;43.92;;;9.10;99.90;;;;;;5050004;28;20028;-70
2021/01/29 00:45:51;;;;;;;184.10;42.30;;;9.00;99.90;;;;;;5054112;28;20021;-72
2021/01/29 00:48:17;;;;;;;161.95;41.95;;;9.10;99.90;;;;;;5071145;28;20028;-70
2021/01/29 00:50:43;;;;;;;160.40;40.50;;;9.10;99.90;;;;;;5070363;28;20027;-71
2021/01/29 00:53:09;;;;;;;163.27;42.47;;;9.10;99.90;;;;;;5070813;28;20029;-68
2021/01/29 00:55:36;;;;;;;160.23;38.55;;;9.00;99.90;;;;;;5068973;28;20059;-70
2021/01/29 00:58:02;;;;;;;170.52;42.10;;;9.00;99.90;;;;;;5055440;28;20030;-70
2021/01/29 01:00:28;;;;;;;186.75;43.17;;;9.10;99.90;;;;;;5049902;28;20033;-70
2021/01/29 01:02:53;;;;;;;168.40;40.75;;;9.00;99.90;;;;;;5067286;28;20702;-70
2021/01/29 01:05:22;;;;;;;127.95;38.20;;;9.00;99.90;;;;;;5080148;28;20174;-69
2021/01/29 01:07:48;;;;;;;159.52;41.42;;;9.10;99.90;;;;;;5056921;28;20055;-72
2021/01/29 01:10:15;;;;;;;153.18;40.42;;;9.10;99.90;;;;;;5083026;28;20060;-71
2021/01/29 01:12:41;;;;;;;188.20;42.53;;;9.10;99.90;;;;;;5054094;28;20020;-70
2021/01/29 01:15:25;;;;;;;153.10;38.95;;;9.10;99.90;;;;;;5051182;28;20033;-69
2021/01/29 01:17:55;;;;;;;105.65;34.97;;;9.10;99.90;;;;;;5069646;28;20044;-70
2021/01/29 01:20:24;;;;;;;147.93;40.38;;;9.20;99.90;;;;;;5068928;28;20058;-71
2021/01/29 01:22:51;;;;;;;163.88;40.42;;;9.20;99.90;;;;;;5068454;28;20037;-70
2021/01/29 01:25:17;;;;;;;133.48;38.88;;;9.10;99.90;;;;;;5065619;28;20028;-70
2021/01/29 01:27:42;;;;;;;165.43;41.85;;;9.10;99.90;;;;;;5071144;28;20031;-70
2021/01/29 01:30:12;;;;;;;122.25;37.30;;;9.10;99.90;;;;;;5090845;28;20048;-71
2021/01/29 01:32:38;;;;;;;139.50;39.00;;;9.20;99.90;;;;;;5072384;28;20019;-69
2021/01/29 01:35:05;;;;;;;171.07;42.53;;;9.10;99.90;;;;;;5071589;28;20093;-69
2021/01/29 01:37:31;;;;;;;141.27;39.63;;;9.20;99.90;;;;;;5090366;28;20477;-70
2021/01/29 01:39:58;;;;;;;147.23;40.33;;;9.20;99.90;;;;;;5069275;28;20119;-71
2021/01/29 01:42:23;;;;;;;150.80;40.50;;;9.30;99.90;;;;;;5089482;28;20034;-69
2021/01/29 01:44:49;;;;;;;163.43;40.25;;;9.30;99.90;;;;;;5089646;28;20115;-71
2021/01/29 01:47:23;;;;;;;163.05;41.65;;;9.30;99.90;;;;;;5089601;28;20549;-71
2021/01/29 01:49:53;;;;;;;142.05;39.58;;;9.30;99.90;;;;;;5090056;28;20119;-69
2021/01/29 01:52:25;;;;;;;114.78;34.92;;;9.30;99.90;;;;;;5090125;28;20131;-71
2021/01/29 01:55:07;;;;;;;98.30;35.03;;;9.40;99.90;;;;;;5090152;28;20031;-71
2021/01/29 01:57:37;;;;;;;115.67;36.30;;;9.40;99.90;;;;;;5089678;28;20040;-71
2021/01/29 02:00:27;;;;;;;92.38;32.38;;;9.40;99.90;;;;;;5087900;28;20077;-71
2021/01/29 02:03:07;;;;;;;129.95;35.90;;;9.40;99.90;;;;;;5089574;28;20017;-71
2021/01/29 02:05:39;;;;;;;90.45;32.83;;;9.50;99.90;;;;;;5084018;28;20048;-70
2021/01/29 02:08:10;;;;;;;119.05;34.83;;;9.40;99.90;;;;;;5071583;28;20047;-71
2021/01/29 02:10:36;;;;;;;123.50;34.85;;;9.40;99.90;;;;;;5089212;28;20055;-72
2021/01/29 02:13:04;;;;;;;123.25;32.22;;;9.40;99.90;;;;;;5089831;28;20481;-71
2021/01/29 02:15:32;;;;;;;124.05;34.70;;;9.40;99.90;;;;;;5057822;28;20032;-71
2021/01/29 02:18:21;;;;;;;118.80;32.67;;;9.30;99.90;;;;;;5089856;28;20473;-72
2021/01/29 02:21:25;;;;;;;144.90;35.15;;;9.40;99.90;;;;;;5088932;28;20468;-72
2021/01/29 02:24:18;;;;;;;83.53;26.55;;;9.30;99.90;;;;;;5089946;28;20055;-71
2021/01/29 02:27:14;;;;;;;88.90;28.85;;;9.30;99.90;;;;;;5082383;28;20021;-71
2021/01/29 02:29:55;;;;;;;97.57;28.75;;;9.30;99.90;;;;;;5076083;28;20431;-73
2021/01/29 02:32:53;;;;;;;128.82;32.75;;;9.30;99.90;;;;;;5088932;28;20532;-72
2021/01/29 02:35:48;;;;;;;119.68;33.03;;;9.30;99.90;;;;;;5076605;28;20393;-70
2021/01/29 02:38:44;;;;;;;112.82;31.70;;;9.30;99.90;;;;;;5068917;28;20016;-70
2021/01/29 02:41:33;;;;;;;98.07;30.15;;;9.30;99.90;;;;;;5089048;28;20084;-71
2021/01/29 02:44:07;;;;;;;91.95;28.15;;;9.30;99.90;;;;;;5077250;28;20044;-71
2021/01/29 02:46:58;;;;;;;60.72;25.15;;;9.30;99.90;;;;;;5087382;28;20012;-70
2021/01/29 02:49:47;;;;;;;85.60;26.05;;;9.30;99.90;;;;;;5081285;28;20477;-71
2021/01/29 02:52:24;;;;;;;89.43;26.00;;;9.30;99.90;;;;;;5080504;28;20016;-71
2021/01/29 02:54:58;;;;;;;50.83;20.83;;;9.30;99.90;;;;;;5076263;28;20495;-72
2021/01/29 02:57:56;;;;;;;54.30;20.20;;;9.30;99.90;;;;;;5082629;28;20025;-70
2021/01/29 03:00:43;;;;;;;47.50;18.50;;;9.30;99.90;;;;;;5057363;28;20032;-70
2021/01/29 03:03:20;;;;;;;38.10;18.13;;;9.30;99.90;;;;;;5077482;28;20045;-73
2021/01/29 03:05:58;;;;;;;37.97;17.77;;;9.40;99.90;;;;;;5070267;28;20051;-70
2021/01/29 03:08:32;;;;;;;45.85;19.05;;;9.40;99.90;;;;;;5075833;28;20146;-72
2021/01/29 03:11:19;;;;;;;42.58;18.08;;;9.40;99.90;;;;;;5077036;28;20034;-71
2021/01/29 03:14:02;;;;;;;38.08;18.98;;;9.40;99.90;;;;;;5072694;28;20021;-71
2021/01/29 03:16:33;;;;;;;53.95;22.17;;;9.40;99.90;;;;;;5089949;28;20048;-71
2021/01/29 03:19:15;;;;;;;45.08;21.23;;;9.50;99.90;;;;;;5065544;28;20044;-70
2021/01/29 03:21:47;;;;;;;53.15;20.77;;;9.50;99.90;;;;;;5081111;28;20043;-72
2021/01/29 03:24:25;;;;;;;42.28;18.90;;;9.50;99.90;;;;;;5073337;28;20016;-73
2021/01/29 03:26:57;;;;;;;34.58;16.67;;;9.50;99.90;;;;;;5088518;28;20020;-72
2021/01/29 03:29:25;;;;;;;38.45;17.58;;;9.50;99.90;;;;;;5089504;28;20161;-72
2021/01/29 03:31:55;;;;;;;33.80;16.05;;;9.50;99.90;;;;;;5070732;28;20043;-71
2021/01/29 03:34:31;;;;;;;38.97;15.25;;;9.50;99.90;;;;;;5088626;28;20032;-72
2021/01/29 03:37:04;;;;;;;25.80;13.90;;;9.60;99.90;;;;;;5067478;28;20032;-71
2021/01/29 03:39:36;;;;;;;21.10;12.52;;;9.60;99.90;;;;;;5079913;28;20210;-71
2021/01/29 03:42:25;;;;;;;24.52;12.25;;;9.70;99.90;;;;;;5051831;28;20533;-70
2021/01/29 03:45:07;;;;;;;45.50;15.05;;;9.70;99.90;;;;;;5083529;28;20103;-71
2021/01/29 03:47:38;;;;;;;29.33;13.18;;;9.60;99.90;;;;;;5087312;28;20040;-71
2021/01/29 03:50:06;;;;;;;33.72;14.07;;;9.60;99.90;;;;;;5070353;28;20221;-71
2021/01/29 03:52:57;;;;;;;29.73;12.15;;;9.60;99.90;;;;;;5082133;28;20028;-71
2021/01/29 03:55:46;;;;;;;30.52;13.25;;;9.60;99.90;;;;;;5085109;28;20099;-72
2021/01/29 03:58:41;;;;;;;28.75;12.48;;;9.70;99.90;;;;;;5079990;28;20036;-71
2021/01/29 04:01:31;;;;;;;35.45;13.02;;;9.60;99.90;;;;;;5077233;28;20025;-72
2021/01/29 04:04:11;;;;;;;20.73;9.75;;;9.60;99.90;;;;;;5086638;28;20051;-71
2021/01/29 04:07:12;;;;;;;14.35;7.72;;;9.60;99.90;;;;;;5076623;28;20554;-72
2021/01/29 04:09:53;;;;;;;10.82;6.63;;;9.60;99.90;;;;;;5085365;28;20631;-71
2021/01/29 04:12:45;;;;;;;12.68;6.32;;;9.50;99.90;;;;;;5072819;28;20024;-72
2021/01/29 04:15:28;;;;;;;13.32;6.60;;;9.50;99.90;;;;;;5087439;28;20504;-72
2021/01/29 04:18:15;;;;;;;15.82;7.53;;;9.40;99.90;;;;;;5071329;28;20493;-71
2021/01/29 04:21:02;;;;;;;13.18;6.28;;;9.40;99.90;;;;;;5063085;28;20043;-71
2021/01/29 04:23:57;;;;;;;10.18;5.63;;;9.40;99.90;;;;;;5056603;28;20024;-71
2021/01/29 04:26:28;;;;;;;8.77;5.15;;;9.30;99.90;;;;;;5093266;28;20032;-70
2021/01/29 04:29:06;;;;;;;11.90;5.57;;;9.30;99.90;;;;;;5085322;28;20557;-70
2021/01/29 04:31:34;;;;;;;8.88;5.03;;;9.30;99.90;;;;;;5084627;28;20043;-71
2021/01/29 04:34:27;;;;;;;12.57;5.85;;;9.20;99.90;;;;;;5092712;28;20047;-72
2021/01/29 04:36:56;;;;;;;11.60;5.43;;;9.20;99.90;;;;;;5072507;28;20036;-71
2021/01/29 04:39:50;;;;;;;14.52;5.60;;;9.30;99.90;;;;;;5056128;28;20363;-70
2021/01/29 04:42:51;;;;;;;11.52;5.90;;;9.20;99.90;;;;;;5059490;28;20456;-71
2021/01/29 04:45:31;;;;;;;9.85;4.72;;;9.20;99.90;;;;;;5021569;28;20037;-70
2021/01/29 04:48:11;;;;;;;10.93;5.05;;;9.20;99.90;;;;;;5048222;28;20079;-70
2021/01/29 04:50:55;;;;;;;14.30;4.25;;;9.10;99.90;;;;;;5090455;28;20125;-71
2021/01/29 04:53:58;;;;;;;10.85;3.15;;;9.10;99.90;;;;;;5087530;28;20429;-70
2021/01/29 04:56:54;;;;;;;6.50;3.13;;;9.10;99.90;;;;;;5072462;28;20024;-70
2021/01/29 04:59:31;;;;;;;13.80;2.58;;;9.00;99.90;;;;;;5076416;28;20036;-72
2021/01/29 05:02:27;;;;;;;8.00;2.78;;;9.00;99.90;;;;;;5083835;28;20036;-72
2021/01/29 05:04:58;;;;;;;10.13;2.40;;;8.90;99.90;;;;;;5087679;28;20039;-71
2021/01/29 05:07:35;;;;;;;10.05;3.40;;;9.00;99.90;;;;;;5089720;28;20103;-72
2021/01/29 05:10:39;;;;;;;9.15;2.85;;;8.90;99.90;;;;;;5087494;28;20068;-74
2021/01/29 05:13:24;;;;;;;6.53;3.05;;;8.90;99.90;;;;;;5097520;28;20024;-71
2021/01/29 05:16:04;;;;;;;11.07;3.22;;;8.90;99.90;;;;;;5107468;28;20048;-71
2021/01/29 05:18:46;;;;;;;12.55;3.15;;;8.90;99.90;;;;;;5086410;28;20052;-72
2021/01/29 05:21:41;;;;;;;6.00;3.25;;;8.80;99.90;;;;;;5083659;28;20054;-73
2021/01/29 05:24:44;;;;;;;15.98;3.55;;;8.80;99.90;;;;;;5079306;28;20263;-73
2021/01/29 05:27:59;;;;;;;6.53;3.28;;;8.80;99.90;;;;;;5047805;28;20389;-73
2021/01/29 05:30:53;;;;;;;9.40;2.78;;;8.80;99.90;;;;;;5069639;28;20069;-69
2021/01/29 05:33:43;;;;;;;14.50;3.35;;;8.70;99.90;;;;;;5085136;28;20020;-69
2021/01/29 05:36:35;;;;;;;19.08;3.63;;;8.70;99.90;;;;;;5085965;28;20020;-72
2021/01/29 05:39:21;;;;;;;13.00;3.58;;;8.70;99.90;;;;;;5081918;28;20436;-70
2021/01/29 05:41:46;;;;;;;14.43;2.67;;;8.70;99.90;;;;;;5086361;28;20043;-70
2021/01/29 05:44:18;;;;;;;24.70;3.10;;;8.70;99.90;;;;;;5089395;28;20020;-69
2021/01/29 05:47:04;;;;;;;13.07;2.13;;;8.70;99.90;;;;;;5090893;28;20047;-69
2021/01/29 05:50:05;;;;;;;15.65;2.85;;;8.70;99.90;;;;;;5078968;28;20016;-71
2021/01/29 05:52:51;;;;;;;23.40;3.20;;;8.70;99.90;;;;;;5085073;28;20020;-71
2021/01/29 05:55:41;;;;;;;14.65;2.47;;;8.70;99.90;;;;;;5086431;28;20020;-73
2021/01/29 05:58:40;;;;;;;17.20;2.83;;;8.70;99.90;;;;;;5083603;28;20397;-72
2021/01/29 06:01:38;;;;;;;14.23;2.60;;;8.70;99.90;;;;;;5087086;28;20028;-71
2021/01/29 06:04:29;;;;;;;11.65;2.30;;;8.70;99.90;;;;;;5083617;28;20016;-72
2021/01/29 06:06:57;;;;;;;16.77;2.88;;;8.70;99.90;;;;;;5071004;28;20067;-72
2021/01/29 06:09:38;;;;;;;22.67;3.83;;;8.70;99.90;;;;;;5081296;28;20051;-71
2021/01/29 06:12:25;;;;;;;20.70;3.10;;;8.70;99.90;;;;;;5071753;28;20480;-70
2021/01/29 06:15:31;;;;;;;24.42;2.90;;;8.70;99.90;;;;;;5067304;28;20423;-71
2021/01/29 06:18:09;;;;;;;12.07;3.08;;;8.70;99.90;;;;;;5068756;28;20138;-71
2021/01/29 06:21:11;;;;;;;18.33;3.47;;;8.70;99.90;;;;;;5085864;28;20035;-70
2021/01/29 06:23:56;;;;;;;27.17;5.60;;;8.70;99.90;;;;;;5086172;28;20575;-71
2021/01/29 06:26:52;;;;;;;17.52;4.72;;;8.70;99.90;;;;;;5085266;28;20044;-71
2021/01/29 06:29:46;;;;;;;16.85;5.07;;;8.70;99.90;;;;;;5055241;28;20099;-70
2021/01/29 06:32:48;;;;;;;18.33;4.78;;;8.70;99.90;;;;;;5082953;28;20024;-69
2021/01/29 06:35:44;;;;;;;22.77;4.43;;;8.80;99.90;;;;;;5082301;28;20016;-70
2021/01/29 06:38:49;;;;;;;18.00;3.78;;;8.70;99.90;;;;;;5084962;28;20496;-69
2021/01/29 06:41:39;;;;;;;28.55;4.03;;;8.80;99.90;;;;;;5068120;28;20115;-70
2021/01/29 06:44:42;;;;;;;34.97;4.28;;;8.80;99.90;;;;;;5081086;28;20115;-70
2021/01/29 06:47:46;;;;;;;35.80;3.95;;;8.80;99.90;;;;;;5086861;28;20079;-70
2021/01/29 06:50:33;;;;;;;37.53;4.22;;;8.80;99.90;;;;;;5082964;28;20071;-69
2021/01/29 06:53:30;;;;;;;26.80;3.97;;;8.90;99.90;;;;;;5067754;28;20497;-69
2021/01/29 06:56:30;;;;;;;30.13;4.40;;;8.90;99.90;;;;;;5078252;28;20126;-70
2021/01/29 06:59:14;;;;;;;26.55;3.67;;;8.90;99.90;;;;;;5090902;28;20020;-70
2021/01/29 07:02:02;;;;;;;39.15;5.22;;;8.90;99.90;;;;;;5077038;28;20055;-70
2021/01/29 07:05:03;;;;;;;42.13;5.18;;;8.80;99.90;;;;;;5068346;28;20507;-70
2021/01/29 07:08:03;;;;;;;64.40;5.85;;;8.80;99.90;;;;;;5004937;28;20070;-71
2021/01/29 07:10:50;;;;;;;50.15;5.78;;;8.70;99.90;;;;;;5087551;28;20100;-71
2021/01/29 07:13:44;;;;;;;42.75;4.97;;;8.70;99.90;;;;;;5086047;28;20059;-70
2021/01/29 07:16:25;;;;;;;47.58;6.43;;;8.70;99.90;;;;;;5076479;28;20044;-70
2021/01/29 07:19:18;;;;;;;56.75;6.88;;;8.70;99.90;;;;;;5088197;28;20120;-70
2021/01/29 07:22:00;;;;;;;;;;;8.70;99.90;;;;;;5089103;28;20031;-69
2021/01/29 07:24:44;;;;;;;65.05;6.50;;;8.70;99.90;;;;;;5073813;28;20049;-70
2021/01/29 07:27:44;;;;;;;45.83;5.85;;;8.70;99.90;;;;;;5087995;28;20031;-72
2021/01/29 07:30:13;;;;;;;54.63;5.88;;;8.70;99.90;;;;;;5088145;28;20484;-70
2021/01/29 07:32:44;;;;;;;65.75;7.53;;;8.70;99.90;;;;;;5084212;28;20032;-69
2021/01/29 07:35:18;;;;;;;53.15;5.93;;;8.70;99.90;;;;;;5077635;28;20111;-71
2021/01/29 07:38:09;;;;;;;59.47;6.60;;;8.70;99.90;;;;;;5101619;28;20477;-71
2021/01/29 07:40:51;;;;;;;54.53;6.50;;;8.70;99.90;;;;;;5060909;28;20056;-70
2021/01/29 07:43:29;;;;;;;53.75;6.25;;;8.70;99.90;;;;;;5088614;28;20385;-71
2021/01/29 07:46:32;;;;;;;46.15;5.88;;;8.70;99.90;;;;;;5092127;28;20039;-71
2021/01/29 07:49:00;;;;;;;;;;;8.70;99.90;;;;;;5071877;28;20017;-73
2021/01/29 07:51:38;;;;;;;52.45;7.38;;;8.70;99.90;;;;;;5068934;28;19908;-69
2021/01/29 07:54:40;;;;;;;47.22;6.38;;;8.70;99.90;;;;;;5082730;28;20031;-68
2021/01/29 07:57:30;;;;;;;48.13;6.88;;;8.70;99.90;;;;;;5089231;28;20016;-72
2021/01/29 08:00:08;;;;;;;38.03;4.50;;;8.70;99.90;;;;;;5087610;28;20519;-70
2021/01/29 08:03:11;;;;;;;52.80;6.03;;;8.70;99.90;;;;;;5091583;28;20031;-69
2021/01/29 08:05:53;;;;;;;43.47;5.22;;;8.70;99.90;;;;;;5085783;28;20035;-69
2021/01/29 08:08:25;;;;;;;56.13;6.47;;;8.60;99.90;;;;;;5085703;28;20032;-70
2021/01/29 08:10:54;;;;;;;47.28;5.28;;;8.70;99.90;;;;;;5091354;28;20023;-72
2021/01/29 08:13:45;;;;;;;51.17;5.88;;;8.70;99.90;;;;;;5073572;28;20128;-70
2021/01/29 08:16:48;;;;;;;51.25;5.45;;;8.70;99.90;;;;;;5081292;28;20043;-70
2021/01/29 08:19:50;;;;;;;63.58;7.13;;;8.60;99.90;;;;;;5094281;28;20119;-69
2021/01/29 08:22:39;;;;;;;49.22;6.43;;;8.60;99.90;;;;;;5092976;28;20020;-71
2021/01/29 08:25:11;;;;;;;53.28;6.25;;;8.70;99.90;;;;;;5097186;28;20066;-70
2021/01/29 08:28:05;;;;;;;72.85;8.27;;;8.70;99.90;;;;;;5090757;28;20327;-71
2021/01/29 08:31:01;;;;;;;54.58;6.43;;;8.70;99.90;;;;;;5090699;28;20032;-71
2021/01/29 08:33:58;;;;;;;51.53;7.07;;;8.70;99.90;;;;;;5080965;28;20043;-69
2021/01/29 08:36:46;;;;;;;46.63;4.97;;;8.70;99.90;;;;;;5083546;28;20036;-69
2021/01/29 08:39:28;;;;;;;59.15;6.60;;;8.70;99.90;;;;;;5091358;28;20040;-71
2021/01/29 08:42:07;;;;;;;57.97;6.35;;;8.60;99.90;;;;;;5079384;28;20032;-70
2021/01/29 08:45:02;;;;;;;37.05;6.10;;;8.60;99.90;;;;;;5076323;28;20024;-70
2021/01/29 08:47:36;;;;;;;47.92;6.90;;;8.70;99.90;;;;;;5053884;28;20426;-70
2021/01/29 08:50:17;;;;;;;52.42;6.78;;;8.70;99.90;;;;;;5070783;28;20032;-70
2021/01/29 08:53:07;;;;;;;38.35;5.30;;;8.60;99.90;;;;;;5083463;28;20122;-71
2021/01/29 08:56:05;;;;;;;53.90;6.75;;;8.60;99.90;;;;;;5087118;28;20028;-71
2021/01/29 08:58:52;;;;;;;45.97;4.78;;;8.70;99.90;;;;;;5081415;28;20032;-70
2021/01/29 09:01:27;;;;;;;57.10;6.38;;;8.70;99.90;;;;;;5075016;28;20077;-68
2021/01/29 09:04:00;;;;;;;54.03;5.47;;;8.60;99.90;;;;;;5076305;28;20466;-69
2021/01/29 09:06:36;;;;;;;44.20;5.03;;;8.60;99.90;;;;;;5075867;28;20070;-68
2021/01/29 09:09:06;;;;;;;52.42;6.00;;;8.60;99.90;;;;;;5085756;28;20042;-69
2021/01/29 09:11:55;;;;;;;45.08;5.80;;;8.60;99.90;;;;;;5086278;28;20032;-69
2021/01/29 09:14:31;;;;;;;54.88;5.75;;;8.60;99.90;;;;;;5080981;28;20423;-70
2021/01/29 09:17:08;;;;;;;51.08;5.43;;;8.60;99.90;;;;;;5089954;28;20071;-71
2021/01/29 09:19:43;;;;;;;51.45;5.78;;;8.60;99.90;;;;;;5083694;28;20032;-70
2021/01/29 09:22:35;;;;;;;54.17;7.28;;;8.70;99.90;;;;;;5088532;28;20011;-71
2021/01/29 09:25:41;;;;;;;43.40;5.73;;;8.70;99.90;;;;;;5090268;28;20027;-68
2021/01/29 09:28:44;;;;;;;44.55;5.93;;;8.70;99.90;;;;;;5083559;28;20260;-70
2021/01/29 09:31:29;;;;;;;43.58;5.47;;;8.80;99.90;;;;;;5057413;28;20039;-71
2021/01/29 09:34:08;;;;;;;49.40;6.13;;;8.90;99.90;;;;;;5087777;28;20020;-72
2021/01/29 09:37:05;;;;;;;44.80;5.97;;;8.90;99.90;;;;;;5054071;28;20024;-73
2021/01/29 09:39:42;;;;;;;38.28;5.78;;;8.90;99.90;;;;;;5022746;28;20041;-71
2021/01/29 09:42:21;;;;;;;46.97;5.40;;;9.00;99.90;;;;;;5089962;28;20438;-71
2021/01/29 09:45:07;;;;;;;54.30;5.15;;;8.90;99.90;;;;;;5085598;28;20103;-71
2021/01/29 09:47:50;;;;;;;42.17;5.55;;;9.00;99.90;;;;;;5055655;28;20040;-70
2021/01/29 09:50:42;;;;;;;47.03;6.35;;;9.10;99.90;;;;;;5071160;28;20100;-72
2021/01/29 09:53:38;;;;;;;52.65;5.80;;;9.10;99.90;;;;;;5076713;28;20028;-73
2021/01/29 09:56:27;;;;;;;53.42;6.50;;;9.10;99.90;;;;;;5098837;28;20051;-70
2021/01/29 09:59:27;;;;;;;44.88;5.43;;;9.10;99.90;;;;;;5096815;28;20054;-70
2021/01/29 10:02:06;;;;;;;48.67;5.28;;;9.10;99.90;;;;;;5086587;28;20043;-70
2021/01/29 10:04:59;;;;;;;57.25;6.47;;;9.10;99.90;;;;;;5085084;28;20024;-70
2021/01/29 10:07:30;;;;;;;46.95;5.80;;;9.10;99.90;;;;;;5090031;28;20460;-68
2021/01/29 10:10:23;;;;;;;49.33;5.70;;;9.10;99.90;;;;;;5082744;28;20019;-70
2021/01/29 10:13:20;;;;;;;46.63;5.63;;;9.10;99.90;;;;;;5081006;28;20033;-71
2021/01/29 10:16:05;;;;;;;49.85;5.50;;;9.10;99.90;;;;;;5087082;28;20513;-72
2021/01/29 10:18:32;;;;;;;46.72;6.28;;;9.10;99.90;;;;;;5039576;28;20072;-71
2021/01/29 10:21:12;;;;;;;43.00;5.60;;;9.10;99.90;;;;;;5082378;28;20029;-72
2021/01/29 10:23:43;;;;;;;33.50;5.05;;;9.10;99.90;;;;;;5052402;28;20497;-70
2021/01/29 10:26:33;;;;;;;42.10;6.82;;;9.10;99.90;;;;;;5069065;28;20016;-70
2021/01/29 10:29:24;;;;;;;47.03;6.07;;;9.10;99.90;;;;;;5070033;28;20071;-73
2021/01/29 10:32:19;;;;;;;42.80;6.13;;;9.10;99.90;;;;;;5060164;28;20013;-71
2021/01/29 10:34:56;;;;;;;40.70;4.80;;;9.10;99.90;;;;;;5064136;28;20091;-71
2021/01/29 10:37:46;;;;;;;52.80;5.88;;;9.10;99.90;;;;;;5056139;28;20017;-69
2021/01/29 10:40:27;;;;;;;37.78;5.20;;;9.10;99.90;;;;;;5056594;28;20024;-71
2021/01/29 10:43:08;;;;;;;41.17;6.53;;;9.10;99.90;;;;;;5064158;28;20024;-72
2021/01/29 10:45:53;;;;;;;32.22;5.63;;;9.10;99.90;;;;;;5058791;28;20385;-70
2021/01/29 10:48:42;;;;;;;50.38;5.78;;;9.10;99.90;;;;;;5067542;28;20409;-69
2021/01/29 10:51:54;;;;;;;42.85;6.57;;;9.10;99.90;;;;;;5055650;28;20025;-73
2021/01/29 10:54:22;;;;;;;49.38;6.40;;;9.10;99.90;;;;;;5057935;28;20041;-69
2021/01/29 10:57:41;;;;;;;40.75;5.30;;;9.10;99.90;;;;;;5066755;28;20028;-71
2021/01/29 11:00:15;;;;;;;45.53;6.75;;;9.10;99.90;;;;;;5065557;28;20037;-69
2021/01/29 11:02:46;;;;;;;49.30;5.43;;;9.10;99.90;;;;;;5049070;28;20020;-70
2021/01/29 11:05:27;;;;;;;44.00;5.63;;;9.20;99.90;;;;;;5068239;28;20023;-70
2021/01/29 11:08:22;;;;;;;42.83;5.65;;;9.20;99.90;;;;;;5049035;28;20477;-70
2021/01/29 11:11:23;;;;;;;52.65;5.90;;;9.20;99.90;;;;;;5067692;28;20098;-71
2021/01/29 11:14:03;;;;;;;30.52;3.97;;;9.30;99.90;;;;;;5025515;28;20033;-70
2021/01/29 11:16:49;;;;;;;36.17;5.00;;;9.30;99.90;;;;;;5074216;28;20059;-69
2021/01/29 11:19:25;;;;;;;47.10;5.57;;;9.30;99.90;;;;;;5056853;28;20050;-68
2021/01/29 11:22:26;;;;;;;42.47;6.00;;;9.30;99.90;;;;;;5089077;28;20028;-69
2021/01/29 11:25:20;;;;;;;30.33;4.03;;;9.30;99.90;;;;;;5071053;28;20028;-69
2021/01/29 11:28:16;;;;;;;42.60;6.20;;;9.20;99.90;;;;;;5087919;28;20023;-71
2021/01/29 11:31:36;;;;;;;48.70;6.55;;;9.30;99.90;;;;;;5086328;28;20032;-69
2021/01/29 11:34:04;;;;;;;40.85;5.32;;;9.30;99.90;;;;;;5018594;28;20117;-70
2021/01/29 11:36:37;;;;;;;43.55;5.57;;;9.30;99.90;;;;;;5084346;28;20032;-69
2021/01/29 11:39:18;;;;;;;60.00;4.95;;;9.40;99.90;;;;;;5087932;28;20509;-70
2021/01/29 11:41:49;;;;;;;54.42;6.28;;;9.40;99.90;;;;;;5075055;28;20020;-71
2021/01/29 11:44:28;;;;;;;39.28;5.30;;;9.30;99.90;;;;;;5087984;28;20117;-69
2021/01/29 11:47:09;;;;;;;42.25;5.03;;;9.40;99.90;;;;;;5057080;28;20020;-72
2021/01/29 11:49:54;;;;;;;35.05;4.43;;;9.40;99.90;;;;;;5087645;28;20040;-68
2021/01/29 11:52:38;;;;;;;43.75;6.82;;;9.40;99.90;;;;;;5088009;28;20047;-69
2021/01/29 11:55:16;;;;;;;59.63;6.13;;;9.50;99.90;;;;;;5067262;28;20020;-69
2021/01/29 11:58:08;;;;;;;38.17;6.22;;;9.40;99.90;;;;;;5078916;28;20024;-69
2021/01/29 12:00:38;;;;;;;;;;;9.40;99.90;;;;;;5072665;28;20040;-69
2021/01/29 12:03:37;;;;;;;25.27;5.60;;;9.40;99.90;;;;;;5088294;28;20425;-72
2021/01/29 12:06:23;;;;;;;43.83;5.15;;;9.40;99.90;;;;;;5070090;28;20028;-71
2021/01/29 12:09:03;;;;;;;54.90;7.03;;;9.30;99.90;;;;;;5083105;28;20048;-70
2021/01/29 12:11:54;;;;;;;45.33;6.50;;;9.30;99.90;;;;;;5088437;28;20024;-71
2021/01/29 12:14:29;;;;;;;58.30;7.65;;;9.30;99.90;;;;;;5086380;28;20028;-70
2021/01/29 12:16:59;;;;;;;42.72;7.18;;;9.30;99.90;;;;;;5088466;28;20048;-69
2021/01/29 12:19:41;;;;;;;52.38;6.20;;;9.40;99.90;;;;;;5087018;28;20040;-70
2021/01/29 12:22:48;;;;;;;61.22;7.25;;;9.40;99.90;;;;;;5070415;28;20036;-71
2021/01/29 12:25:56;;;;;;;49.38;6.38;;;9.50;99.90;;;;;;5068856;28;20230;-70
2021/01/29 12:28:59;;;;;;;47.92;7.13;;;9.50;99.90;;;;;;5080106;28;20035;-69
2021/01/29 12:31:47;;;;;;;52.40;6.88;;;9.50;99.90;;;;;;5089278;28;20059;-71
2021/01/29 12:34:30;;;;;;;44.10;5.95;;;9.50;99.90;;;;;;5091456;28;20028;-69
2021/01/29 12:37:13;;;;;;;59.60;7.55;;;9.50;99.90;;;;;;5080445;28;20020;-71
2021/01/29 12:39:47;;;;;;;48.55;6.10;;;9.40;99.90;;;;;;5077121;28;20103;-70
2021/01/29 12:42:18;;;;;;;41.95;6.20;;;9.40;99.90;;;;;;5072715;28;20046;-69
2021/01/29 12:45:14;;;;;;;46.50;5.70;;;9.40;99.90;;;;;;5090337;28;20103;-71
2021/01/29 12:47:56;;;;;;;51.95;6.47;;;9.50;99.90;;;;;;5072477;28;20055;-70
2021/01/29 12:50:51;;;;;;;48.95;6.53;;;9.60;99.90;;;;;;5089687;28;20169;-70
2021/01/29 12:53:20;;;;;;;41.13;5.25;;;9.80;99.90;;;;;;5053543;28;20103;-71
2021/01/29 12:56:05;;;;;;;51.22;6.55;;;10.00;99.90;;;;;;5091246;28;20024;-69
2021/01/29 12:58:38;;;;;;;44.50;6.15;;;10.10;99.90;;;;;;5090293;28;20517;-70
2021/01/29 13:01:07;;;;;;;48.20;5.13;;;10.10;99.90;;;;;;5091136;28;20027;-72
2021/01/29 13:03:56;;;;;;;41.35;5.72;;;10.00;99.90;;;;;;5072360;28;20101;-68
2021/01/29 13:06:48;;;;;;;43.97;6.68;;;9.90;99.90;;;;;;5077443;28;20165;-70
2021/01/29 13:09:28;;;;;;;46.45;6.25;;;9.80;99.90;;;;;;5087881;28;20059;-70
2021/01/29 13:12:30;;;;;;;66.80;7.18;;;9.80;99.90;;;;;;5078899;28;20032;-70
2021/01/29 13:15:20;;;;;;;50.53;7.22;;;9.90;99.90;;;;;;5083608;28;20668;-70
2021/01/29 13:17:50;;;;;;;44.38;6.03;;;9.90;99.90;;;;;;5084379;28;20052;-70
2021/01/29 13:20:29;;;;;;;50.88;6.15;;;10.10;99.90;;;;;;5064683;28;20074;-69
2021/01/29 13:23:32;;;;;;;45.47;5.18;;;10.00;99.90;;;;;;5079740;28;20016;-71
2021/01/29 13:26:11;;;;;;;30.35;4.68;;;10.00;99.90;;;;;;5081314;28;20460;-71
2021/01/29 13:28:55;;;;;;;44.13;6.80;;;9.90;99.90;;;;;;5081545;28;20029;-70
2021/01/29 13:31:24;;;;;;;38.88;5.07;;;9.90;99.90;;;;;;5088823;28;20485;-70
2021/01/29 13:33:53;;;;;;;46.22;5.30;;;10.00;99.90;;;;;;5079366;28;20037;-69
2021/01/29 13:36:42;;;;;;;30.88;5.55;;;9.90;99.90;;;;;;5088794;28;20096;-69
2021/01/29 13:39:21;;;;;;;47.63;7.35;;;9.90;99.90;;;;;;5084247;28;20046;-70
2021/01/29 13:41:53;;;;;;;31.23;4.20;;;9.90;99.90;;;;;;5082314;28;20710;-70
2021/01/29 13:44:27;;;;;;;38.20;4.38;;;9.90;99.90;;;;;;5089282;28;20032;-71
2021/01/29 13:46:55;;;;;;;27.88;4.50;;;9.90;99.90;;;;;;5088169;28;20109;-72
2021/01/29 13:49:31;;;;;;;39.80;5.03;;;9.90;99.90;;;;;;5089004;28;20020;-71
2021/01/29 13:51:59;;;;;;;33.53;4.15;;;9.80;99.90;;;;;;5087752;28;20042;-70
2021/01/29 13:54:35;;;;;;;41.35;4.25;;;9.80;99.90;;;;;;5083927;28;20016;-70
2021/01/29 13:57:18;;;;;;;31.33;3.60;;;9.80;99.90;;;;;;5082996;28;20016;-70
2021/01/29 13:59:52;;;;;;;34.08;4.15;;;9.80;99.90;;;;;;5077807;28;20028;-70
2021/01/29 14:02:32;;;;;;;28.42;5.22;;;9.80;99.90;;;;;;5085868;28;20043;-71